Time;durP1;ratioP1;P1;durP2;ratioP2;P2;SDS_P1;SDS_P2;PMS_P1;PMS_P2;Temp;Humidity;BMP_temperature;BMP_pressure;BME280_temperature;BME280_humidity;BME280_pressure;Samples;Min_cycle;Max_cycle;Signal;HPM_P1;HPM_P2
2023/09/13 00:01:50;;;;;;;15.23;14.10;;;20.00;99.90;;;;;;5052016;28;20108;-76
2023/09/13 00:04:16;;;;;;;16.13;14.65;;;20.10;99.90;;;;;;5052759;28;20406;-76
2023/09/13 00:06:42;;;;;;;14.68;13.48;;;20.00;99.90;;;;;;5052770;28;20043;-76
2023/09/13 00:09:08;;;;;;;15.10;13.93;;;20.00;99.90;;;;;;5052838;28;20048;-75
2023/09/13 00:11:37;;;;;;;17.52;16.25;;;20.00;99.90;;;;;;5052799;28;20040;-76
2023/09/13 00:14:03;;;;;;;16.48;15.20;;;19.90;99.90;;;;;;5051655;28;20045;-76
2023/09/13 00:16:29;;;;;;;17.90;16.50;;;19.90;99.90;;;;;;5052392;28;20040;-76
2023/09/13 00:18:56;;;;;;;15.10;13.77;;;20.00;99.90;;;;;;5052853;28;20104;-76
2023/09/13 00:21:22;;;;;;;14.57;13.23;;;20.00;99.90;;;;;;5051163;28;20025;-76
2023/09/13 00:23:48;;;;;;;19.33;17.83;;;20.10;99.90;;;;;;5052746;28;20467;-75
2023/09/13 00:26:14;;;;;;;12.98;11.85;;;20.10;99.90;;;;;;5052439;28;20040;-76
2023/09/13 00:28:40;;;;;;;12.60;11.48;;;20.10;99.90;;;;;;5052824;28;20041;-75
2023/09/13 00:31:09;;;;;;;16.20;14.63;;;20.10;99.90;;;;;;5033683;28;20048;-76
2023/09/13 00:33:36;;;;;;;17.10;15.75;;;20.10;99.90;;;;;;5031247;28;20388;-75
2023/09/13 00:36:02;;;;;;;16.52;15.15;;;20.00;99.90;;;;;;5038290;28;20036;-76
2023/09/13 00:38:28;;;;;;;15.05;13.70;;;20.00;99.90;;;;;;5052347;28;20041;-75
2023/09/13 00:40:55;;;;;;;18.42;17.02;;;20.00;99.90;;;;;;5052220;28;20029;-76
2023/09/13 00:43:21;;;;;;;14.65;13.68;;;20.00;99.90;;;;;;5052296;28;20081;-76
2023/09/13 00:45:47;;;;;;;17.70;15.32;;;20.00;99.90;;;;;;5051514;28;20416;-75
2023/09/13 00:48:14;;;;;;;16.88;15.43;;;20.00;99.90;;;;;;5050744;28;20052;-75
2023/09/13 00:50:41;;;;;;;15.82;14.43;;;20.00;99.90;;;;;;5051972;28;20025;-75
2023/09/13 00:53:07;;;;;;;16.00;14.75;;;20.00;99.90;;;;;;5050525;28;20041;-76
2023/09/13 00:55:33;;;;;;;16.77;15.40;;;20.00;99.90;;;;;;5051913;28;20028;-76
2023/09/13 00:57:59;;;;;;;14.82;13.70;;;20.10;99.90;;;;;;5052436;28;20041;-75
2023/09/13 01:00:27;;;;;;;15.15;13.70;;;20.00;99.90;;;;;;5050195;28;20040;-75
2023/09/13 01:02:53;;;;;;;15.10;14.00;;;20.10;99.90;;;;;;5051822;28;20051;-76
2023/09/13 01:05:19;;;;;;;15.63;14.20;;;20.10;99.90;;;;;;5050520;28;20029;-76
2023/09/13 01:07:46;;;;;;;15.55;14.20;;;20.00;99.90;;;;;;5051930;28;20060;-76
2023/09/13 01:10:12;;;;;;;16.80;15.40;;;20.00;99.90;;;;;;5051477;28;20041;-76
2023/09/13 01:12:38;;;;;;;15.25;13.57;;;19.90;99.90;;;;;;5052008;28;20037;-76
2023/09/13 01:15:08;;;;;;;13.82;12.55;;;19.80;99.90;;;;;;5051215;28;20395;-76
2023/09/13 01:17:49;;;;;;;13.93;12.70;;;19.90;99.90;;;;;;5034413;28;20047;-76
2023/09/13 01:20:30;;;;;;;13.93;12.65;;;20.00;99.90;;;;;;5035336;28;20021;-76
2023/09/13 01:23:24;;;;;;;17.17;13.77;;;20.00;99.90;;;;;;5052099;28;20025;-76
2023/09/13 01:26:22;;;;;;;15.18;13.77;;;20.10;99.90;;;;;;5052030;28;20029;-76
2023/09/13 01:28:49;;;;;;;17.67;16.05;;;20.10;99.90;;;;;;5029521;28;20112;-75
2023/09/13 01:31:17;;;;;;;16.15;14.70;;;20.20;99.90;;;;;;5026785;28;20038;-76
2023/09/13 01:33:44;;;;;;;15.55;14.02;;;20.20;99.90;;;;;;5009329;28;20090;-76
2023/09/13 01:36:10;;;;;;;17.95;16.77;;;20.20;99.90;;;;;;5001100;28;20044;-76
2023/09/13 01:38:37;;;;;;;17.70;16.13;;;20.20;99.90;;;;;;5029579;28;20029;-76
2023/09/13 01:41:21;;;;;;;14.80;13.63;;;20.20;99.90;;;;;;5029203;28;20455;-75
2023/09/13 01:43:50;;;;;;;14.80;13.00;;;20.10;99.90;;;;;;4996614;28;20492;-75
2023/09/13 01:46:16;;;;;;;17.02;15.75;;;20.10;99.90;;;;;;5011826;28;20435;-76
2023/09/13 01:48:43;;;;;;;17.02;15.38;;;20.10;99.90;;;;;;5013138;28;20029;-76
2023/09/13 01:51:09;;;;;;;16.35;14.90;;;20.00;99.90;;;;;;5028584;28;20372;-76
2023/09/13 01:53:44;;;;;;;15.57;14.27;;;20.00;99.90;;;;;;4996560;28;20438;-76
2023/09/13 01:56:11;;;;;;;15.57;13.75;;;20.00;99.90;;;;;;5012806;28;20033;-76
2023/09/13 01:58:37;;;;;;;16.52;15.05;;;20.00;99.90;;;;;;5029411;28;20038;-76
2023/09/13 02:01:03;;;;;;;17.13;15.48;;;20.10;99.90;;;;;;5028395;28;20041;-75
2023/09/13 02:03:29;;;;;;;14.90;13.57;;;20.10;99.90;;;;;;5029453;28;20373;-75
2023/09/13 02:05:55;;;;;;;16.67;15.15;;;20.10;99.90;;;;;;5039528;28;20044;-76
2023/09/13 02:08:21;;;;;;;15.55;14.15;;;20.10;99.90;;;;;;5051653;28;20044;-76
2023/09/13 02:10:50;;;;;;;16.65;15.23;;;20.00;99.90;;;;;;5051205;28;20041;-76
2023/09/13 02:13:16;;;;;;;14.60;13.55;;;19.90;99.90;;;;;;5051311;28;20029;-76
2023/09/13 02:15:42;;;;;;;14.35;12.98;;;19.90;99.90;;;;;;5050082;28;20052;-75
2023/09/13 02:18:08;;;;;;;15.55;14.23;;;19.90;99.90;;;;;;5051477;28;20029;-76
2023/09/13 02:20:35;;;;;;;13.95;12.65;;;19.80;99.90;;;;;;5054821;28;20386;-76
2023/09/13 02:23:01;;;;;;;15.65;14.18;;;19.80;99.90;;;;;;5055067;28;20040;-76
2023/09/13 02:25:27;;;;;;;15.93;14.38;;;19.80;99.90;;;;;;5054816;28;20399;-76
2023/09/13 02:27:53;;;;;;;14.00;12.65;;;19.80;99.90;;;;;;5054882;28;20025;-76
2023/09/13 02:30:19;;;;;;;13.63;12.52;;;19.90;99.90;;;;;;5053660;28;20033;-75
2023/09/13 02:32:45;;;;;;;16.50;14.73;;;19.90;99.90;;;;;;5054810;28;20033;-76
2023/09/13 02:35:11;;;;;;;15.23;13.93;;;19.90;99.90;;;;;;5054330;28;20395;-76
2023/09/13 02:37:38;;;;;;;16.88;15.55;;;19.90;99.90;;;;;;5054769;28;20087;-76
2023/09/13 02:40:05;;;;;;;15.15;13.85;;;19.90;99.90;;;;;;5054564;28;20036;-76
2023/09/13 02:42:32;;;;;;;14.05;12.85;;;19.90;99.90;;;;;;5054649;28;20056;-76
2023/09/13 02:44:58;;;;;;;16.17;14.63;;;19.90;99.90;;;;;;5054723;28;20041;-76
2023/09/13 02:47:24;;;;;;;16.77;15.20;;;20.00;99.90;;;;;;5053837;28;20044;-76
2023/09/13 02:49:50;;;;;;;16.55;15.00;;;20.00;99.90;;;;;;5054396;28;20037;-76
2023/09/13 02:52:25;;;;;;;14.73;13.15;;;20.00;99.90;;;;;;5054297;28;20033;-76
2023/09/13 02:54:51;;;;;;;14.50;13.15;;;20.00;99.90;;;;;;5054388;28;20115;-76
2023/09/13 02:57:18;;;;;;;14.82;13.63;;;19.90;99.90;;;;;;5052848;28;20033;-76
2023/09/13 02:59:44;;;;;;;17.08;15.85;;;19.90;99.90;;;;;;5053954;28;20131;-76
2023/09/13 03:02:10;;;;;;;18.15;16.10;;;19.80;99.90;;;;;;5053476;28;20037;-76
2023/09/13 03:04:36;;;;;;;17.70;16.27;;;19.80;99.90;;;;;;5054338;28;20033;-76
2023/09/13 03:07:02;;;;;;;15.93;14.10;;;19.90;99.90;;;;;;5053791;28;20025;-75
2023/09/13 03:09:28;;;;;;;16.95;15.32;;;19.80;99.90;;;;;;5053132;28;20045;-76
2023/09/13 03:11:54;;;;;;;14.85;13.68;;;19.90;99.90;;;;;;5053692;28;20048;-76
2023/09/13 03:14:20;;;;;;;15.60;14.30;;;19.90;99.90;;;;;;5053501;28;20053;-76
2023/09/13 03:16:46;;;;;;;20.05;18.27;;;19.90;99.90;;;;;;5053164;28;20037;-76
2023/09/13 03:19:12;;;;;;;14.30;13.13;;;19.90;99.90;;;;;;5053828;28;20021;-75
2023/09/13 03:21:38;;;;;;;17.05;15.57;;;19.90;99.90;;;;;;5053336;28;20483;-76
2023/09/13 03:24:06;;;;;;;14.43;13.20;;;19.90;99.90;;;;;;5053893;28;20048;-76
2023/09/13 03:26:32;;;;;;;16.05;14.68;;;19.80;99.90;;;;;;5035865;28;20479;-76
2023/09/13 03:28:58;;;;;;;14.38;12.82;;;19.70;99.90;;;;;;5053461;28;20040;-75
2023/09/13 03:31:25;;;;;;;15.15;13.52;;;19.70;99.90;;;;;;5050007;28;20064;-76
2023/09/13 03:33:52;;;;;;;16.25;14.30;;;19.80;99.90;;;;;;5032667;28;20483;-76
2023/09/13 03:36:18;;;;;;;16.13;14.82;;;19.80;99.90;;;;;;5042905;28;20033;-75
2023/09/13 03:38:46;;;;;;;14.13;12.75;;;19.80;99.90;;;;;;5053580;28;20036;-76
2023/09/13 03:41:15;;;;;;;16.67;15.05;;;19.80;99.90;;;;;;5053175;28;20040;-76
2023/09/13 03:43:41;;;;;;;16.55;14.82;;;19.70;99.90;;;;;;5052400;28;20104;-75
2023/09/13 03:46:07;;;;;;;15.52;13.13;;;19.70;99.90;;;;;;5034958;28;20029;-76
2023/09/13 03:48:34;;;;;;;14.32;12.82;;;19.70;99.90;;;;;;5051802;28;20037;-76
2023/09/13 03:51:00;;;;;;;12.88;11.68;;;19.70;99.90;;;;;;5053010;28;20044;-75
2023/09/13 03:53:26;;;;;;;13.93;12.57;;;19.80;99.90;;;;;;5052120;28;20017;-76
2023/09/13 03:55:53;;;;;;;14.68;13.38;;;19.80;99.90;;;;;;5051281;28;20047;-76
2023/09/13 03:58:21;;;;;;;17.05;13.02;;;19.70;99.90;;;;;;5053126;28;20036;-75
2023/09/13 04:00:47;;;;;;;18.33;15.38;;;19.70;99.90;;;;;;5052461;28;20495;-76
2023/09/13 04:03:14;;;;;;;12.95;11.80;;;19.60;99.90;;;;;;5035348;28;20036;-76
2023/09/13 04:05:40;;;;;;;11.98;11.07;;;19.60;99.90;;;;;;5051484;28;20427;-75
2023/09/13 04:08:07;;;;;;;13.70;11.95;;;19.60;99.90;;;;;;5035326;28;20139;-76
2023/09/13 04:10:33;;;;;;;18.02;16.48;;;19.60;99.90;;;;;;5052230;28;20032;-76
2023/09/13 04:12:59;;;;;;;12.02;10.90;;;19.50;99.90;;;;;;5052950;28;20029;-76
2023/09/13 04:15:25;;;;;;;14.60;12.18;;;19.50;99.90;;;;;;5051938;28;20044;-76
2023/09/13 04:17:51;;;;;;;13.13;11.95;;;19.40;99.90;;;;;;5052858;28;20037;-76
2023/09/13 04:20:17;;;;;;;13.38;12.20;;;19.30;99.90;;;;;;5052547;28;20026;-76
2023/09/13 04:22:43;;;;;;;12.40;11.13;;;19.30;99.90;;;;;;5051652;28;20399;-76
2023/09/13 04:25:10;;;;;;;12.35;11.10;;;19.20;99.90;;;;;;5052059;28;20033;-76
2023/09/13 04:27:36;;;;;;;12.07;11.07;;;19.20;99.90;;;;;;5031484;28;20042;-76
2023/09/13 04:30:02;;;;;;;15.40;14.00;;;19.20;99.90;;;;;;5032069;28;20042;-72
2023/09/13 04:32:28;;;;;;;12.27;11.15;;;19.10;99.90;;;;;;5051336;28;20036;-75
2023/09/13 04:34:55;;;;;;;12.65;11.43;;;19.10;99.90;;;;;;5052566;28;20033;-76
2023/09/13 04:37:21;;;;;;;12.00;10.82;;;19.10;99.90;;;;;;5052328;28;20052;-76
2023/09/13 04:39:47;;;;;;;11.65;10.32;;;19.10;99.90;;;;;;5052007;28;20028;-75
2023/09/13 04:42:13;;;;;;;11.88;10.75;;;19.10;99.90;;;;;;5051604;28;20029;-76
2023/09/13 04:44:40;;;;;;;11.73;10.70;;;19.10;99.90;;;;;;5052266;28;20029;-75
2023/09/13 04:47:06;;;;;;;11.15;10.18;;;19.10;99.90;;;;;;5051516;28;20423;-76
2023/09/13 04:49:32;;;;;;;12.27;10.63;;;19.10;99.90;;;;;;5052240;28;20029;-76
2023/09/13 04:51:59;;;;;;;12.77;10.55;;;19.10;99.90;;;;;;5051961;28;20033;-75
2023/09/13 04:54:25;;;;;;;14.10;10.23;;;19.20;99.90;;;;;;5052118;28;20040;-75
2023/09/13 04:56:52;;;;;;;12.07;11.02;;;19.20;99.90;;;;;;5052058;28;20037;-76
2023/09/13 04:59:18;;;;;;;13.13;11.75;;;19.20;99.90;;;;;;5052066;28;20399;-76
2023/09/13 05:01:44;;;;;;;12.07;11.05;;;19.30;99.90;;;;;;5050010;28;20060;-75
2023/09/13 05:04:10;;;;;;;11.50;10.50;;;19.30;99.90;;;;;;5052220;28;20021;-76
2023/09/13 05:06:37;;;;;;;13.05;11.93;;;19.20;99.90;;;;;;5050813;28;20159;-75
2023/09/13 05:09:04;;;;;;;14.65;12.02;;;19.10;99.90;;;;;;5051727;28;20332;-76
2023/09/13 05:11:30;;;;;;;11.20;10.10;;;19.10;99.90;;;;;;5051820;28;20410;-76
2023/09/13 05:14:12;;;;;;;13.68;12.50;;;19.10;99.90;;;;;;5050475;28;20049;-76
2023/09/13 05:16:38;;;;;;;15.35;14.15;;;19.00;99.90;;;;;;5051449;28;20726;-76
2023/09/13 05:19:04;;;;;;;12.27;11.10;;;19.00;99.90;;;;;;5051790;28;20029;-75
2023/09/13 05:21:31;;;;;;;15.18;13.85;;;18.90;99.90;;;;;;5051989;28;20029;-76
2023/09/13 05:23:57;;;;;;;16.20;14.15;;;18.90;99.90;;;;;;5051641;28;20399;-75
2023/09/13 05:26:23;;;;;;;17.33;15.90;;;18.80;99.90;;;;;;5051733;28;20025;-75
2023/09/13 05:28:49;;;;;;;16.30;13.77;;;18.90;99.90;;;;;;5052227;28;20107;-76
2023/09/13 05:31:15;;;;;;;14.65;13.43;;;18.90;99.90;;;;;;5051134;28;20037;-76
2023/09/13 05:33:41;;;;;;;14.40;13.10;;;19.00;99.90;;;;;;5033995;28;20037;-75
2023/09/13 05:36:12;;;;;;;16.63;15.32;;;19.00;99.90;;;;;;5051846;28;20037;-75
2023/09/13 05:38:38;;;;;;;14.30;13.15;;;19.00;99.90;;;;;;5051978;28;20468;-75
2023/09/13 05:41:13;;;;;;;16.38;15.05;;;19.10;99.90;;;;;;5050477;28;20380;-76
2023/09/13 05:43:40;;;;;;;14.23;12.57;;;19.10;99.90;;;;;;5051729;28;20025;-75
2023/09/13 05:46:07;;;;;;;16.23;14.45;;;19.20;99.90;;;;;;5051590;28;20475;-76
2023/09/13 05:48:33;;;;;;;16.55;15.05;;;19.20;99.90;;;;;;5050563;28;20036;-75
2023/09/13 05:50:59;;;;;;;16.70;14.82;;;19.20;99.90;;;;;;5051799;28;20045;-75
2023/09/13 05:53:25;;;;;;;15.30;13.90;;;19.20;99.90;;;;;;5050533;28;20025;-75
2023/09/13 05:55:52;;;;;;;14.45;13.25;;;19.10;99.90;;;;;;5054367;28;20029;-75
2023/09/13 05:58:18;;;;;;;16.33;15.07;;;19.20;99.90;;;;;;5055812;28;20499;-76
2023/09/13 06:00:48;;;;;;;15.00;13.82;;;19.10;99.90;;;;;;5053811;28;20037;-76
2023/09/13 06:03:16;;;;;;;17.75;16.27;;;19.20;99.90;;;;;;5055428;28;20025;-76
2023/09/13 06:05:42;;;;;;;15.90;14.40;;;19.10;99.90;;;;;;5055498;28;20025;-75
2023/09/13 06:08:08;;;;;;;15.73;14.57;;;19.20;99.90;;;;;;5020445;28;20037;-76
2023/09/13 06:10:34;;;;;;;20.70;18.92;;;19.20;99.90;;;;;;5055192;28;20037;-75
2023/09/13 06:13:00;;;;;;;15.85;14.73;;;19.20;99.90;;;;;;5055321;28;20032;-75
2023/09/13 06:15:26;;;;;;;16.92;15.43;;;19.30;99.90;;;;;;5053393;28;20033;-75
2023/09/13 06:17:54;;;;;;;16.00;14.63;;;19.30;99.90;;;;;;5053962;28;20039;-76
2023/09/13 06:20:21;;;;;;;15.32;13.85;;;19.30;99.90;;;;;;5055208;28;20037;-75
2023/09/13 06:22:47;;;;;;;12.50;11.23;;;19.10;99.90;;;;;;5055008;28;20029;-76
2023/09/13 06:25:16;;;;;;;14.40;13.43;;;19.00;99.90;;;;;;5054911;28;20032;-75
2023/09/13 06:27:43;;;;;;;14.95;13.73;;;18.90;99.90;;;;;;5054899;28;20033;-75
2023/09/13 06:30:10;;;;;;;14.48;13.13;;;19.00;99.90;;;;;;5054407;28;20047;-75
2023/09/13 06:32:36;;;;;;;14.20;12.75;;;18.90;99.90;;;;;;5053671;28;20029;-75
2023/09/13 06:35:02;;;;;;;13.98;12.55;;;18.80;99.90;;;;;;5053648;28;20383;-75
2023/09/13 06:37:28;;;;;;;14.98;13.43;;;18.80;99.90;;;;;;5053509;28;20029;-75
2023/09/13 06:39:54;;;;;;;15.40;14.13;;;18.80;99.90;;;;;;5054762;28;20025;-76
2023/09/13 06:42:21;;;;;;;15.77;14.10;;;18.60;99.90;;;;;;5054642;28;20025;-75
2023/09/13 06:44:47;;;;;;;19.50;14.40;;;18.60;99.90;;;;;;5055011;28;20052;-76
2023/09/13 06:47:13;;;;;;;14.35;13.00;;;18.70;99.90;;;;;;5054033;28;20506;-76
2023/09/13 06:49:39;;;;;;;15.57;14.38;;;18.70;99.90;;;;;;5054198;28;20036;-74
2023/09/13 06:52:05;;;;;;;15.02;13.75;;;18.70;99.90;;;;;;5054435;28;20387;-75
2023/09/13 06:54:31;;;;;;;12.93;11.65;;;18.70;99.90;;;;;;5054535;28;20040;-75
2023/09/13 06:56:57;;;;;;;14.32;12.90;;;18.90;99.90;;;;;;5054423;28;20045;-76
2023/09/13 06:59:23;;;;;;;13.60;12.27;;;18.90;99.90;;;;;;5054309;28;20032;-76
2023/09/13 07:01:49;;;;;;;13.30;11.70;;;19.00;99.90;;;;;;5053786;28;20036;-76
2023/09/13 07:04:17;;;;;;;12.75;11.75;;;18.90;99.90;;;;;;5053448;28;20060;-76
2023/09/13 07:06:43;;;;;;;15.65;14.32;;;18.90;99.90;;;;;;5054337;28;20033;-76
2023/09/13 07:09:09;;;;;;;26.27;24.50;;;19.00;99.90;;;;;;5054192;28;20044;-75
2023/09/13 07:11:35;;;;;;;33.75;31.52;;;19.00;99.90;;;;;;5054156;28;20044;-76
2023/09/13 07:14:02;;;;;;;35.88;33.38;;;19.00;99.90;;;;;;5053946;28;20049;-76
2023/09/13 07:16:28;;;;;;;29.75;27.30;;;19.00;99.90;;;;;;5053434;28;20037;-75
2023/09/13 07:18:55;;;;;;;26.48;24.67;;;19.10;99.90;;;;;;5053770;28;20028;-76
2023/09/13 07:21:21;;;;;;;28.65;26.20;;;19.20;99.90;;;;;;5053902;28;20369;-76
2023/09/13 07:23:47;;;;;;;35.35;33.25;;;19.20;99.90;;;;;;5052771;28;20032;-76
2023/09/13 07:26:14;;;;;;;43.03;40.45;;;19.30;99.90;;;;;;5053834;28;20033;-76
2023/09/13 07:28:40;;;;;;;40.45;37.75;;;19.20;99.90;;;;;;5053687;28;20041;-75
2023/09/13 07:31:09;;;;;;;48.63;45.97;;;19.20;99.90;;;;;;5051740;28;20518;-76
2023/09/13 07:33:35;;;;;;;36.20;33.70;;;19.20;99.90;;;;;;5051798;28;20044;-76
2023/09/13 07:36:01;;;;;;;32.95;30.52;;;19.20;99.90;;;;;;5054089;28;20049;-76
2023/09/13 07:38:27;;;;;;;33.25;30.92;;;19.20;99.90;;;;;;5052688;28;20033;-75
2023/09/13 07:40:53;;;;;;;38.60;36.20;;;19.30;99.90;;;;;;5053737;28;20040;-75
2023/09/13 07:43:20;;;;;;;38.35;36.03;;;19.50;99.90;;;;;;5052396;28;20056;-76
2023/09/13 07:45:46;;;;;;;54.58;51.60;;;19.50;99.90;;;;;;5052976;28;20037;-75
2023/09/13 07:48:12;;;;;;;60.33;56.83;;;19.50;99.90;;;;;;5053227;28;20021;-76
2023/09/13 07:50:44;;;;;;;56.40;53.17;;;19.70;99.90;;;;;;5053704;28;20052;-75
2023/09/13 07:53:10;;;;;;;58.30;54.83;;;19.70;99.90;;;;;;5053209;28;20033;-75
2023/09/13 07:55:36;;;;;;;55.92;52.47;;;19.70;99.90;;;;;;5053287;28;20025;-75
2023/09/13 07:58:04;;;;;;;63.85;60.42;;;19.90;99.90;;;;;;5053170;28;20132;-75
2023/09/13 08:00:30;;;;;;;54.97;51.47;;;20.20;99.90;;;;;;5052903;28;20029;-75
2023/09/13 08:02:58;;;;;;;70.88;66.95;;;20.40;99.90;;;;;;5052952;28;20021;-75
2023/09/13 08:05:24;;;;;;;74.85;70.88;;;20.60;99.90;;;;;;5053034;28;20040;-75
2023/09/13 08:07:51;;;;;;;88.68;83.80;;;20.60;99.90;;;;;;5053190;28;20330;-75
2023/09/13 08:10:17;;;;;;;86.22;81.35;;;20.70;99.90;;;;;;5052963;28;20052;-75
2023/09/13 08:12:43;;;;;;;90.93;85.55;;;20.70;99.90;;;;;;5053104;28;20037;-75
2023/09/13 08:15:09;;;;;;;93.72;88.63;;;20.80;99.90;;;;;;5052277;28;20048;-74
2023/09/13 08:17:36;;;;;;;106.57;100.85;;;20.90;99.90;;;;;;5051900;28;20025;-75
2023/09/13 08:20:04;;;;;;;75.15;70.90;;;21.20;99.90;;;;;;5053478;28;20033;-75
2023/09/13 08:22:32;;;;;;;71.45;67.38;;;21.40;99.90;;;;;;5051490;28;20388;-75
2023/09/13 08:24:58;;;;;;;100.80;95.50;;;21.40;99.90;;;;;;5052997;28;20028;-75
2023/09/13 08:27:24;;;;;;;97.15;91.90;;;21.40;99.90;;;;;;5051463;28;20029;-75
2023/09/13 08:29:50;;;;;;;109.53;104.07;;;21.40;99.90;;;;;;5052763;28;20032;-75
2023/09/13 08:32:16;;;;;;;118.78;112.70;;;21.40;99.90;;;;;;5050574;28;20049;-75
2023/09/13 08:34:42;;;;;;;94.25;88.90;;;21.50;99.90;;;;;;5052737;28;20119;-75
2023/09/13 08:37:08;;;;;;;111.70;106.20;;;21.60;99.90;;;;;;5052569;28;20025;-75
2023/09/13 08:39:35;;;;;;;109.28;103.75;;;21.60;99.90;;;;;;5052292;28;20064;-75
2023/09/13 08:42:01;;;;;;;113.20;107.15;;;21.60;99.90;;;;;;5052222;28;20037;-76
2023/09/13 08:44:27;;;;;;;90.50;85.45;;;21.60;99.90;;;;;;5052454;28;20037;-75
2023/09/13 08:46:55;;;;;;;110.95;105.05;;;21.80;99.90;;;;;;5051599;28;20029;-75
2023/09/13 08:49:22;;;;;;;79.15;75.05;;;21.90;99.90;;;;;;5051112;28;20021;-75
2023/09/13 08:51:48;;;;;;;90.07;85.25;;;22.00;99.90;;;;;;5051049;28;20472;-75
2023/09/13 08:54:15;;;;;;;82.32;78.00;;;22.10;99.90;;;;;;5052441;28;20017;-75
2023/09/13 08:56:45;;;;;;;83.20;79.05;;;22.10;99.90;;;;;;5034545;28;20482;-75
2023/09/13 08:59:15;;;;;;;90.97;86.33;;;22.00;99.90;;;;;;5052439;28;20399;-75
2023/09/13 09:01:49;;;;;;;87.83;83.33;;;22.10;99.90;;;;;;5050200;28;20036;-75
2023/09/13 09:04:16;;;;;;;81.40;77.35;;;22.20;99.90;;;;;;5052164;28;20032;-75
2023/09/13 09:06:42;;;;;;;99.43;94.32;;;22.30;99.90;;;;;;5050844;28;20056;-75
2023/09/13 09:09:08;;;;;;;114.30;108.53;;;22.40;99.90;;;;;;5052179;28;20036;-75
2023/09/13 09:11:36;;;;;;;97.05;92.03;;;22.60;99.90;;;;;;5050943;28;20483;-75
2023/09/13 09:14:02;;;;;;;111.95;106.35;;;22.80;99.90;;;;;;5050835;28;20066;-75
2023/09/13 09:16:30;;;;;;;101.45;96.40;;;22.90;99.90;;;;;;5051198;28;20048;-75
2023/09/13 09:18:58;;;;;;;98.85;93.63;;;22.80;99.90;;;;;;5050949;28;20033;-75
2023/09/13 09:21:24;;;;;;;125.65;119.28;;;22.60;99.90;;;;;;5052163;28;20021;-75
2023/09/13 09:23:50;;;;;;;118.00;112.03;;;22.40;99.90;;;;;;5050893;28;20033;-75
2023/09/13 09:26:16;;;;;;;102.55;97.45;;;22.30;99.90;;;;;;5051958;28;20032;-75
2023/09/13 09:28:43;;;;;;;166.40;157.65;;;22.20;99.90;;;;;;5054304;28;20033;-76
2023/09/13 09:31:10;;;;;;;108.30;102.95;;;22.40;99.90;;;;;;5053736;28;20037;-75
2023/09/13 09:33:39;;;;;;;106.10;100.72;;;22.70;99.90;;;;;;5036272;28;20021;-75
2023/09/13 09:36:05;;;;;;;109.45;103.75;;;22.90;99.90;;;;;;5043508;28;20052;-75
2023/09/13 09:38:31;;;;;;;102.32;97.22;;;22.80;99.90;;;;;;5054636;28;20040;-75
2023/09/13 09:41:02;;;;;;;104.95;99.53;;;22.70;99.90;;;;;;5055560;28;20383;-76
2023/09/13 09:43:28;;;;;;;107.57;102.07;;;22.40;99.90;;;;;;5054567;28;20040;-76
2023/09/13 09:45:54;;;;;;;118.93;112.65;;;22.20;99.90;;;;;;5053573;28;20036;-75
2023/09/13 09:48:20;;;;;;;124.07;117.93;;;22.50;99.90;;;;;;5054633;28;20033;-75
2023/09/13 09:50:49;;;;;;;116.95;111.18;;;22.70;99.90;;;;;;5055298;28;20041;-76
2023/09/13 09:53:16;;;;;;;103.38;98.28;;;22.70;99.90;;;;;;5054676;28;20041;-75
2023/09/13 09:55:42;;;;;;;107.60;102.15;;;22.70;99.90;;;;;;5053985;28;20056;-75
2023/09/13 09:58:08;;;;;;;113.93;108.35;;;22.70;99.90;;;;;;5054286;28;20025;-76
2023/09/13 10:00:48;;;;;;;122.43;116.45;;;22.80;99.90;;;;;;5053338;28;20041;-75
2023/09/13 10:03:17;;;;;;;113.75;108.10;;;22.90;99.90;;;;;;5054177;28;20375;-78
2023/09/13 10:06:01;;;;;;;129.60;122.95;;;23.00;99.90;;;;;;5053868;28;20033;-75
2023/09/13 10:08:45;;;;;;;122.35;116.32;;;23.00;99.90;;;;;;5054407;28;20504;-75
2023/09/13 10:11:12;;;;;;;102.40;97.40;;;23.00;99.90;;;;;;5070079;28;20056;-75
2023/09/13 10:13:39;;;;;;;111.43;105.93;;;22.90;99.90;;;;;;5054908;28;20041;-78
2023/09/13 10:16:09;;;;;;;121.70;115.70;;;22.90;99.90;;;;;;5054316;28;20037;-75
2023/09/13 10:18:48;;;;;;;97.80;92.88;;;23.00;99.90;;;;;;5053960;28;20025;-76
2023/09/13 10:21:19;;;;;;;99.53;94.55;;;23.20;99.90;;;;;;5053659;28;20403;-76
2023/09/13 10:23:46;;;;;;;84.35;79.97;;;23.40;99.90;;;;;;5054136;28;20025;-76
2023/09/13 10:26:15;;;;;;;103.72;98.50;;;23.40;99.90;;;;;;5053587;28;20033;-76
2023/09/13 10:28:44;;;;;;;97.78;92.75;;;23.30;99.90;;;;;;5053639;28;20522;-76
2023/09/13 10:31:18;;;;;;;143.27;136.38;;;23.20;99.90;;;;;;5053908;28;20052;-75
2023/09/13 10:33:46;;;;;;;99.85;94.82;;;23.30;99.90;;;;;;5055166;28;20056;-75
2023/09/13 10:36:21;;;;;;;109.68;104.07;;;23.50;99.90;;;;;;5053289;28;20048;-75
2023/09/13 10:38:52;;;;;;;111.63;106.07;;;23.60;99.90;;;;;;5053169;28;20391;-75
2023/09/13 10:41:18;;;;;;;153.70;146.23;;;23.80;99.90;;;;;;5052756;28;20025;-76
2023/09/13 10:43:46;;;;;;;159.30;151.32;;;24.00;99.90;;;;;;5053100;28;20048;-75
2023/09/13 10:46:12;;;;;;;175.77;167.10;;;24.20;99.90;;;;;;5052496;28;20037;-76
2023/09/13 10:48:38;;;;;;;162.52;154.32;;;24.30;99.90;;;;;;5036962;28;20029;-76
2023/09/13 10:51:05;;;;;;;208.20;197.82;;;24.50;99.90;;;;;;5054019;28;20037;-76
2023/09/13 10:53:32;;;;;;;202.48;192.35;;;24.60;99.90;;;;;;5053406;28;20399;-76
2023/09/13 10:55:58;;;;;;;165.02;156.88;;;24.50;99.90;;;;;;5053877;28;20037;-75
2023/09/13 10:58:25;;;;;;;152.20;144.75;;;24.40;99.90;;;;;;5054180;28;20036;-75
2023/09/13 11:00:53;;;;;;;215.20;204.85;;;24.40;99.90;;;;;;5053685;28;20044;-75
2023/09/13 11:03:19;;;;;;;273.65;260.17;;;24.20;99.90;;;;;;5052869;28;20049;-75
2023/09/13 11:05:47;;;;;;;236.23;224.77;;;24.20;99.90;;;;;;5054124;28;20060;-75
2023/09/13 11:08:29;;;;;;;221.82;210.70;;;23.90;99.90;;;;;;5054167;28;20029;-75
2023/09/13 11:10:56;;;;;;;232.98;221.45;;;23.80;99.90;;;;;;5053477;28;20041;-75
2023/09/13 11:13:30;;;;;;;220.77;210.02;;;23.80;99.90;;;;;;5052792;28;20029;-76
2023/09/13 11:15:59;;;;;;;206.80;196.40;;;24.00;99.90;;;;;;5053151;28;20048;-76
2023/09/13 11:18:25;;;;;;;220.05;209.20;;;24.00;99.90;;;;;;5054701;28;20041;-75
2023/09/13 11:20:52;;;;;;;222.68;211.73;;;23.80;99.90;;;;;;5053619;28;20037;-76
2023/09/13 11:23:18;;;;;;;238.18;226.35;;;23.70;99.90;;;;;;5053881;28;20028;-75
2023/09/13 11:25:48;;;;;;;278.55;264.70;;;23.90;99.90;;;;;;5053198;28;20040;-76
2023/09/13 11:28:37;;;;;;;322.48;306.10;;;24.00;99.90;;;;;;5053925;28;20487;-76
2023/09/13 11:31:04;;;;;;;289.27;274.50;;;24.30;99.90;;;;;;5052680;28;20049;-75
2023/09/13 11:33:32;;;;;;;421.48;399.13;;;24.30;99.90;;;;;;5032685;28;20085;-75
2023/09/13 11:35:58;;;;;;;430.00;406.83;;;24.30;99.90;;;;;;5038849;28;20386;-75
2023/09/13 11:38:25;;;;;;;375.00;355.38;;;24.60;99.90;;;;;;5053529;28;20025;-75
2023/09/13 11:40:57;;;;;;;410.88;388.95;;;24.70;99.90;;;;;;5051794;28;20048;-76
2023/09/13 11:43:26;;;;;;;413.88;392.25;;;24.70;99.90;;;;;;5053769;28;20029;-76
2023/09/13 11:45:56;;;;;;;313.85;298.00;;;24.30;99.90;;;;;;5052643;28;20033;-76
2023/09/13 11:48:29;;;;;;;334.92;318.10;;;24.10;99.90;;;;;;5053451;28;20033;-75
2023/09/13 11:50:56;;;;;;;361.45;342.98;;;24.10;99.90;;;;;;5053104;28;20471;-76
2023/09/13 11:53:25;;;;;;;385.83;366.33;;;24.10;99.90;;;;;;5053752;28;20053;-76
2023/09/13 11:55:56;;;;;;;402.27;382.10;;;24.10;99.90;;;;;;5052680;28;20044;-76
2023/09/13 11:58:32;;;;;;;376.02;357.20;;;24.20;99.90;;;;;;5053522;28;20052;-76
2023/09/13 12:00:59;;;;;;;333.38;316.58;;;24.30;99.90;;;;;;5051148;28;20372;-76
2023/09/13 12:03:30;;;;;;;305.00;289.65;;;24.50;99.90;;;;;;5051898;28;20029;-76
2023/09/13 12:05:56;;;;;;;321.27;305.35;;;24.60;99.90;;;;;;5052995;28;20045;-76
2023/09/13 12:08:24;;;;;;;279.38;265.67;;;24.80;99.90;;;;;;5053395;28;20498;-76
2023/09/13 12:10:50;;;;;;;285.85;271.55;;;24.80;99.90;;;;;;5050584;28;20048;-76
2023/09/13 12:13:19;;;;;;;331.75;315.15;;;24.70;99.90;;;;;;5051593;28;20037;-76
2023/09/13 12:16:01;;;;;;;304.48;289.52;;;24.90;99.90;;;;;;5052118;28;20033;-76
2023/09/13 12:18:28;;;;;;;237.95;226.35;;;25.10;99.90;;;;;;5051734;28;20033;-76
2023/09/13 12:20:58;;;;;;;252.23;239.85;;;25.20;99.90;;;;;;5051568;28;20041;-76
2023/09/13 12:23:27;;;;;;;235.50;224.13;;;25.30;99.80;;;;;;5051034;28;20369;-76
2023/09/13 12:25:57;;;;;;;262.73;249.98;;;24.90;98.20;;;;;;5052466;28;20029;-76